createdAt,value
2019-03-31T00:03:09.713Z,17.33
2019-03-31T00:09:16.526Z,16.77
2019-03-31T00:15:23.068Z,18.47
2019-03-31T00:21:30.026Z,17.60
2019-03-31T00:27:36.644Z,18.40
2019-03-31T00:33:43.337Z,18.20
2019-03-31T00:39:50.121Z,17.37
2019-03-31T00:45:56.726Z,18.37
2019-03-31T00:52:03.356Z,17.57
2019-03-31T00:58:10.395Z,18.00
2019-03-31T01:04:19.734Z,17.30
2019-03-31T01:10:26.604Z,18.20
2019-03-31T01:16:33.989Z,16.70
2019-03-31T01:22:40.766Z,17.93
2019-03-31T01:28:47.608Z,16.53
2019-03-31T01:34:54.880Z,16.03
2019-03-31T01:41:01.584Z,17.67
2019-03-31T01:47:09.627Z,18.90
2019-03-31T01:53:16.296Z,20.50
2019-03-31T01:59:23.096Z,15.73
2019-03-31T02:05:30.231Z,23.10
2019-03-31T02:11:36.926Z,19.40
2019-03-31T02:17:43.581Z,20.00
2019-03-31T02:23:50.158Z,20.53
2019-03-31T02:29:56.754Z,20.83
2019-03-31T02:36:03.488Z,21.67
2019-03-31T02:42:10.224Z,22.17
2019-03-31T02:48:17.282Z,21.10
2019-03-31T02:54:23.983Z,23.70
2019-03-31T03:00:30.655Z,25.77
2019-03-31T03:06:38.957Z,39.83
2019-03-31T03:12:47.082Z,41.53
2019-03-31T03:18:53.914Z,49.37
2019-03-31T03:25:00.650Z,49.53
2019-03-31T03:31:14.632Z,53.70
2019-03-31T03:37:15.526Z,51.03
2019-03-31T03:43:22.276Z,47.67
2019-03-31T03:49:28.895Z,54.03
2019-03-31T03:55:35.622Z,47.90
2019-03-31T04:01:42.223Z,51.07
2019-03-31T04:07:48.857Z,50.60
2019-03-31T04:13:56.078Z,52.90
2019-03-31T04:20:02.692Z,57.93
2019-03-31T04:26:09.394Z,56.93
2019-03-31T04:32:16.038Z,57.27
2019-03-31T04:38:22.710Z,61.03
2019-03-31T04:44:29.277Z,60.33
2019-03-31T04:50:36.405Z,59.97
2019-03-31T04:56:42.985Z,57.77
2019-03-31T05:02:49.596Z,57.53
2019-03-31T05:08:56.263Z,57.20
2019-03-31T05:15:02.844Z,56.20
2019-03-31T05:21:09.523Z,55.03
2019-03-31T05:27:16.550Z,55.17
2019-03-31T05:33:23.561Z,53.50
2019-03-31T05:39:30.431Z,55.50
2019-03-31T05:45:37.127Z,54.77
2019-03-31T05:51:43.790Z,56.80
2019-03-31T05:57:50.786Z,55.33
2019-03-31T06:03:57.590Z,53.20
2019-03-31T06:10:04.455Z,49.23
2019-03-31T06:16:11.153Z,43.27
2019-03-31T06:22:17.736Z,44.77
2019-03-31T06:28:24.421Z,37.40
2019-03-31T06:34:31.084Z,37.77
2019-03-31T06:40:37.819Z,37.10
2019-03-31T06:46:44.401Z,34.17
2019-03-31T06:52:51.099Z,36.27
2019-03-31T06:58:57.677Z,34.60
2019-03-31T07:05:04.533Z,34.83
2019-03-31T07:11:11.275Z,32.50
2019-03-31T07:17:18.686Z,33.03
2019-03-31T07:23:25.267Z,32.33
2019-03-31T07:29:32.626Z,33.93
2019-03-31T07:35:39.266Z,36.13
2019-03-31T07:41:46.185Z,35.20
2019-03-31T07:47:53.033Z,35.67
2019-03-31T07:53:59.778Z,36.47
2019-03-31T08:00:08.966Z,36.73
2019-03-31T08:06:15.594Z,36.93
2019-03-31T08:12:22.193Z,34.63
2019-03-31T08:18:29.601Z,37.87
2019-03-31T08:24:45.614Z,36.57
2019-03-31T08:30:52.375Z,35.80
2019-03-31T08:36:58.987Z,35.60
2019-03-31T08:43:06.059Z,33.23
2019-03-31T08:49:12.698Z,30.30
2019-03-31T08:55:19.327Z,31.80
2019-03-31T09:01:26.011Z,29.80
2019-03-31T09:07:32.745Z,28.83
2019-03-31T09:13:39.537Z,25.57
2019-03-31T09:19:46.192Z,26.80
2019-03-31T09:25:53.071Z,26.47
2019-03-31T09:31:59.672Z,26.50
2019-03-31T09:38:06.264Z,25.43
2019-03-31T09:44:12.850Z,25.20
2019-03-31T09:50:20.887Z,23.43
2019-03-31T09:56:27.631Z,23.27
2019-03-31T10:02:34.349Z,21.90
2019-03-31T10:08:41.086Z,19.50
2019-03-31T10:14:47.727Z,19.93
2019-03-31T10:20:54.428Z,18.47
2019-03-31T10:27:01.099Z,16.27
2019-03-31T10:33:08.118Z,17.47
2019-03-31T10:39:15.322Z,16.97
2019-03-31T10:45:21.992Z,18.37
2019-03-31T10:51:28.616Z,17.07
2019-03-31T10:57:35.689Z,16.63
2019-03-31T11:03:42.322Z,15.40
2019-03-31T11:09:48.969Z,15.90
2019-03-31T11:15:57.465Z,15.47
2019-03-31T11:22:16.805Z,16.70
2019-03-31T11:28:23.459Z,16.13
2019-03-31T11:34:44.867Z,15.60
2019-03-31T11:40:51.505Z,15.43
2019-03-31T11:46:59.280Z,15.00
2019-03-31T11:53:06.336Z,14.57
2019-03-31T11:59:13.033Z,13.77
2019-03-31T12:05:19.855Z,14.10
2019-03-31T12:11:26.459Z,12.33
2019-03-31T12:17:33.498Z,14.37
2019-03-31T12:23:41.028Z,13.00
2019-03-31T12:29:48.148Z,12.53
2019-03-31T12:35:54.999Z,12.80
2019-03-31T12:42:01.757Z,13.17
2019-03-31T12:48:08.581Z,13.30
2019-03-31T12:54:15.570Z,12.67
2019-03-31T13:00:22.813Z,12.07
2019-03-31T13:06:29.580Z,11.60
2019-03-31T13:12:36.985Z,11.10
2019-03-31T13:18:47.062Z,11.30
2019-03-31T13:25:02.183Z,12.53
2019-03-31T13:31:07.459Z,11.87
2019-03-31T13:37:14.886Z,11.47
2019-03-31T13:43:22.608Z,12.00
2019-03-31T13:49:30.973Z,11.93
2019-03-31T13:55:38.297Z,11.47
2019-03-31T14:01:45.375Z,10.43
2019-03-31T14:07:52.387Z,11.20
2019-03-31T14:13:58.949Z,11.00
2019-03-31T14:20:06.211Z,10.10
2019-03-31T14:26:13.031Z,10.10
2019-03-31T14:32:19.630Z,10.33
2019-03-31T14:38:39.489Z,9.10
2019-03-31T14:44:34.665Z,8.00
2019-03-31T14:50:42.192Z,8.30
2019-03-31T14:56:48.785Z,7.80
2019-03-31T15:02:55.499Z,9.37
2019-03-31T15:09:02.388Z,8.40
2019-03-31T15:15:09.295Z,7.33
2019-03-31T15:21:16.019Z,7.17
2019-03-31T15:27:22.634Z,7.30
2019-03-31T15:33:29.758Z,7.97
2019-03-31T15:39:36.377Z,6.67
2019-03-31T15:45:43.306Z,5.50
2019-03-31T15:51:50.601Z,6.23
2019-03-31T15:57:57.513Z,5.27
2019-03-31T16:04:04.164Z,5.50
2019-03-31T16:10:11.050Z,4.50
2019-03-31T16:16:17.051Z,4.40
2019-03-31T16:22:22.895Z,4.10
2019-03-31T16:28:28.667Z,3.80
2019-03-31T16:34:35.478Z,4.07
2019-03-31T16:40:41.425Z,3.40
2019-03-31T16:46:47.208Z,3.20
2019-03-31T16:52:53.059Z,3.23
2019-03-31T16:58:58.878Z,3.03
2019-03-31T17:05:04.840Z,3.20
2019-03-31T17:11:10.658Z,3.63
2019-03-31T17:17:17.019Z,3.40
2019-03-31T17:23:22.940Z,3.60
2019-03-31T17:29:28.745Z,8.97
2019-03-31T17:35:35.222Z,4.10
2019-03-31T17:41:41.098Z,3.87
2019-03-31T17:47:46.911Z,3.73
2019-03-31T17:53:52.790Z,3.60
2019-03-31T17:59:58.565Z,3.40
2019-03-31T18:06:05.207Z,3.27
2019-03-31T18:12:11.068Z,3.80
2019-03-31T18:18:17.784Z,3.20
2019-03-31T18:24:23.656Z,3.10
2019-03-31T18:30:29.519Z,3.00
2019-03-31T18:36:36.698Z,3.07
2019-03-31T18:42:42.914Z,2.80
2019-03-31T18:48:48.800Z,2.87
2019-03-31T18:55:06.974Z,2.93
2019-03-31T19:01:34.029Z,3.10
2019-03-31T19:07:55.541Z,2.80
2019-03-31T19:14:29.648Z,2.97
2019-03-31T19:21:10.802Z,2.77
2019-03-31T19:27:32.563Z,2.50
2019-03-31T19:34:04.179Z,2.53
2019-03-31T19:40:27.746Z,2.27
2019-03-31T19:46:51.758Z,2.40
2019-03-31T19:53:34.315Z,2.53
2019-03-31T20:00:13.900Z,2.33
2019-03-31T20:06:44.641Z,2.20
2019-03-31T20:13:18.139Z,2.33
2019-03-31T20:20:01.282Z,2.57
2019-03-31T20:26:23.470Z,2.40
2019-03-31T20:33:07.595Z,2.33
2019-03-31T20:39:26.182Z,2.63
2019-03-31T20:45:32.032Z,2.57
2019-03-31T20:51:38.127Z,2.50
2019-03-31T20:57:43.881Z,2.63
2019-03-31T21:03:50.003Z,2.30
2019-03-31T21:09:56.403Z,2.30
2019-03-31T21:16:02.273Z,2.63
2019-03-31T21:22:08.035Z,2.70
2019-03-31T21:28:13.794Z,2.93
2019-03-31T21:34:19.969Z,2.73
2019-03-31T21:40:26.434Z,2.73
2019-03-31T21:46:32.465Z,2.77
2019-03-31T21:52:38.213Z,2.30
2019-03-31T21:58:44.000Z,2.63
2019-03-31T22:04:49.852Z,2.70
2019-03-31T22:10:55.799Z,2.10
2019-03-31T22:17:01.573Z,2.37
2019-03-31T22:23:07.348Z,2.50
2019-03-31T22:29:13.619Z,2.00
2019-03-31T22:35:19.374Z,2.83
2019-03-31T22:41:25.204Z,2.10
2019-03-31T22:47:31.481Z,2.47
2019-03-31T22:53:37.418Z,2.37
2019-03-31T22:59:43.214Z,2.53
2019-03-31T23:05:49.294Z,2.00
2019-03-31T23:11:55.046Z,2.67
2019-03-31T23:18:00.905Z,2.23
2019-03-31T23:24:06.769Z,2.20
2019-03-31T23:30:12.797Z,2.20
2019-03-31T23:36:18.660Z,2.20
2019-03-31T23:42:24.632Z,2.13
2019-03-31T23:48:30.399Z,1.93
2019-03-31T23:54:36.161Z,2.70
